Terminal Aerodrome Forecast
Issued by NWS

Home | Current Version | Previous Version | Text Only | Print | Product List | Glossary On
Versions: 1 2 3 4 5 6 7 8 9 10 11 12 13 14 15 16 17 18
327
FTUS41 KCAR 180140 AAA
TAFHUL
TAF AMD
KHUL 180140Z 1802/1824 20010KT P6SM OVC080
     FM180400 20008KT P6SM BKN035
     FM180800 23006KT P6SM SCT035
     FM181400 27010G17KT P6SM FEW040 SCT200=

USA.gov is the U.S. government's official web portal to all federal, state and local government web resources and services.